createdAt,value
2023-03-12T00:01:59.791Z,98205.66
2023-03-12T00:04:27.535Z,98203.78
2023-03-12T00:06:54.359Z,98202.37
2023-03-12T00:09:21.286Z,98209.63
2023-03-12T00:11:48.158Z,98213.12
2023-03-12T00:14:15.462Z,98222.50
2023-03-12T00:16:42.271Z,98229.50
2023-03-12T00:19:12.781Z,98229.12
2023-03-12T00:21:40.378Z,98234.50
2023-03-12T00:24:08.277Z,98235.53
2023-03-12T00:26:35.484Z,98238.47
2023-03-12T00:29:02.401Z,98245.94
2023-03-12T00:31:32.900Z,98251.09
2023-03-12T00:34:01.509Z,98244.66
2023-03-12T00:36:30.726Z,98251.62
2023-03-12T00:38:59.146Z,98256.03
2023-03-12T00:41:26.910Z,98248.19
2023-03-12T00:43:53.815Z,98251.09
2023-03-12T00:46:21.353Z,98251.53
2023-03-12T00:48:48.458Z,98251.53
2023-03-12T00:51:15.327Z,98267.91
2023-03-12T00:53:42.333Z,98257.84
2023-03-12T00:56:09.437Z,98256.19
2023-03-12T00:58:36.381Z,98262.84
2023-03-12T01:01:03.800Z,98264.34
2023-03-12T01:03:30.739Z,98263.94
2023-03-12T01:05:57.646Z,98264.19
2023-03-12T01:08:25.154Z,98264.63
2023-03-12T01:10:52.331Z,98271.28
2023-03-12T01:13:19.543Z,98264.25
2023-03-12T01:15:46.463Z,98269.03
2023-03-12T01:18:13.271Z,98264.56
2023-03-12T01:20:41.128Z,98268.13
2023-03-12T01:23:09.119Z,98266.69
2023-03-12T01:25:37.065Z,98260.34
2023-03-12T01:28:04.709Z,98259.97
2023-03-12T01:30:31.595Z,98264.75
2023-03-12T01:32:58.961Z,98264.75
2023-03-12T01:35:26.506Z,98272.91
2023-03-12T01:37:53.509Z,98275.41
2023-03-12T01:40:26.175Z,98274.03
2023-03-12T01:42:57.727Z,98277.78
2023-03-12T01:46:18.689Z,98281.13
2023-03-12T01:48:53.792Z,98279.72
2023-03-12T01:51:22.384Z,98277.66
2023-03-12T01:53:54.313Z,98283.25
2023-03-12T01:56:21.961Z,98282.66
2023-03-12T01:58:53.005Z,98288.25
2023-03-12T02:01:21.724Z,98284.28
2023-03-12T02:03:53.872Z,98283.09
2023-03-12T02:06:28.735Z,98284.78
2023-03-12T02:08:57.086Z,98285.69
2023-03-12T02:11:23.887Z,98290.22
2023-03-12T02:13:50.986Z,98286.53
2023-03-12T02:16:17.874Z,98284.50
2023-03-12T02:18:46.923Z,98287.63
2023-03-12T02:21:25.791Z,98285.16
2023-03-12T02:24:19.499Z,98289.75
2023-03-12T02:26:46.489Z,98296.59
2023-03-12T02:29:13.850Z,98301.16
2023-03-12T02:31:46.020Z,98309.22
2023-03-12T02:34:12.931Z,98312.34
2023-03-12T02:36:39.803Z,98316.06
2023-03-12T02:39:07.119Z,98315.22
2023-03-12T02:41:41.614Z,98315.44
2023-03-12T02:44:14.431Z,98313.84
2023-03-12T02:46:44.612Z,98303.56
2023-03-12T02:49:13.359Z,98296.94
2023-03-12T02:51:42.460Z,98300.87
2023-03-12T02:54:11.220Z,98306.47
2023-03-12T02:56:38.820Z,98312.03
2023-03-12T02:59:06.582Z,98314.56
2023-03-12T03:01:36.747Z,98323.19
2023-03-12T03:04:05.768Z,98325.88
2023-03-12T03:06:33.019Z,98324.25
2023-03-12T03:09:00.025Z,98327.56
2023-03-12T03:11:26.845Z,98331.69
2023-03-12T03:13:54.943Z,98337.47
2023-03-12T03:16:22.400Z,98338.94
2023-03-12T03:18:49.345Z,98342.88
2023-03-12T03:21:16.941Z,98350.28
2023-03-12T03:23:45.688Z,98355.47
2023-03-12T03:26:12.788Z,98356.72
2023-03-12T03:28:40.028Z,98365.56
2023-03-12T03:31:07.296Z,98365.38
2023-03-12T03:33:36.400Z,98368.72
2023-03-12T03:36:04.998Z,98374.50
2023-03-12T03:38:32.806Z,98380.47
2023-03-12T03:40:59.912Z,98378.81
2023-03-12T03:43:27.367Z,98373.66
2023-03-12T03:46:02.964Z,98385.63
2023-03-12T03:48:30.613Z,98385.22
2023-03-12T03:51:01.945Z,98385.84
2023-03-12T03:53:28.818Z,98395.13
2023-03-12T03:55:56.036Z,98392.22
2023-03-12T03:58:23.144Z,98394.31
2023-03-12T04:00:50.440Z,98398.22
2023-03-12T04:03:17.364Z,98406.69
2023-03-12T04:05:45.512Z,98397.81
2023-03-12T04:08:13.666Z,98401.53
2023-03-12T04:10:41.093Z,98399.87
2023-03-12T04:13:08.030Z,98398.44
2023-03-12T04:15:34.805Z,98408.16
2023-03-12T04:18:01.779Z,98405.88
2023-03-12T04:20:28.590Z,98412.84
2023-03-12T04:22:55.484Z,98407.13
2023-03-12T04:25:22.364Z,98412.25
2023-03-12T04:27:49.289Z,98414.50
2023-03-12T04:30:16.176Z,98413.28
2023-03-12T04:32:43.040Z,98424.00
2023-03-12T04:35:09.913Z,98431.63
2023-03-12T04:37:36.698Z,98433.25
2023-03-12T04:40:07.570Z,98433.47
2023-03-12T04:42:35.658Z,98447.44
2023-03-12T04:45:03.807Z,98446.19
2023-03-12T04:47:31.844Z,98449.50
2023-03-12T04:49:59.013Z,98449.06
2023-03-12T04:52:27.035Z,98441.47
2023-03-12T04:54:54.717Z,98451.75
2023-03-12T04:57:21.688Z,98454.81
2023-03-12T04:59:48.637Z,98453.34
2023-03-12T05:02:15.587Z,98469.41
2023-03-12T05:04:42.435Z,98471.25
2023-03-12T05:07:09.283Z,98467.34
2023-03-12T05:09:36.371Z,98470.84
2023-03-12T05:12:03.204Z,98471.25
2023-03-12T05:14:30.012Z,98475.78
2023-03-12T05:16:56.844Z,98480.31
2023-03-12T05:19:23.634Z,98483.59
2023-03-12T05:21:50.547Z,98487.09
2023-03-12T05:24:18.123Z,98486.25
2023-03-12T05:26:44.951Z,98485.84
2023-03-12T05:29:11.801Z,98486.81
2023-03-12T05:31:38.644Z,98488.47
2023-03-12T05:34:05.557Z,98497.72
2023-03-12T05:36:32.465Z,98503.47
2023-03-12T05:38:59.262Z,98509.22
2023-03-12T05:41:28.636Z,98506.56
2023-03-12T05:43:57.441Z,98513.72
2023-03-12T05:46:25.841Z,98516.81
2023-03-12T05:48:53.181Z,98509.41
2023-03-12T05:51:20.802Z,98518.06
2023-03-12T05:53:47.900Z,98523.00
2023-03-12T05:56:16.599Z,98523.81
2023-03-12T05:58:44.023Z,98527.53
2023-03-12T06:01:19.427Z,98538.22
2023-03-12T06:03:46.937Z,98540.28
2023-03-12T06:06:14.460Z,98546.25
2023-03-12T06:08:42.549Z,98546.44
2023-03-12T06:11:09.949Z,98555.31
2023-03-12T06:13:36.778Z,98556.53
2023-03-12T06:16:15.548Z,98554.88
2023-03-12T06:18:42.369Z,98568.44
2023-03-12T06:21:18.434Z,98564.47
2023-03-12T06:23:46.203Z,98564.69
2023-03-12T06:26:13.662Z,98575.19
2023-03-12T06:28:40.975Z,98573.34
2023-03-12T06:31:08.670Z,98575.19
2023-03-12T06:33:35.938Z,98573.97
2023-03-12T06:36:05.152Z,98574.81
2023-03-12T06:38:32.509Z,98576.06
2023-03-12T06:41:02.269Z,98570.53
2023-03-12T06:43:31.386Z,98577.97
2023-03-12T06:46:00.113Z,98581.91
2023-03-12T06:48:28.791Z,98585.00
2023-03-12T06:50:56.010Z,98582.56
2023-03-12T06:53:25.355Z,98587.53
2023-03-12T06:55:52.283Z,98586.94
2023-03-12T06:58:19.452Z,98596.22
2023-03-12T07:00:46.253Z,98598.31
2023-03-12T07:03:13.153Z,98592.53
2023-03-12T07:05:40.285Z,98591.94
2023-03-12T07:08:07.131Z,98603.94
2023-03-12T07:10:34.015Z,98605.00
2023-03-12T07:13:00.933Z,98600.88
2023-03-12T07:15:27.810Z,98599.44
2023-03-12T07:17:54.633Z,98605.03
2023-03-12T07:20:21.554Z,98609.62
2023-03-12T07:22:48.486Z,98605.72
2023-03-12T07:25:17.286Z,98606.75
2023-03-12T07:27:45.403Z,98611.50
2023-03-12T07:30:12.591Z,98613.56
2023-03-12T07:32:39.509Z,98613.81
2023-03-12T07:35:06.780Z,98614.03
2023-03-12T07:37:33.553Z,98613.63
2023-03-12T07:40:00.464Z,98618.38
2023-03-12T07:42:27.359Z,98621.28
2023-03-12T07:44:54.212Z,98618.84
2023-03-12T07:47:24.372Z,98623.59
2023-03-12T07:49:51.991Z,98625.47
2023-03-12T07:52:20.326Z,98630.41
2023-03-12T07:54:47.887Z,98634.13
2023-03-12T07:57:15.072Z,98634.16
2023-03-12T07:59:42.122Z,98630.88
2023-03-12T08:02:10.850Z,98628.37
2023-03-12T08:04:37.878Z,98627.56
2023-03-12T08:07:07.372Z,98630.47
2023-03-12T08:09:38.700Z,98629.84
2023-03-12T08:12:08.593Z,98637.09
2023-03-12T08:14:35.945Z,98636.47
2023-03-12T08:17:03.005Z,98634.81
2023-03-12T08:19:29.822Z,98649.06
2023-03-12T08:21:58.100Z,98655.47
2023-03-12T08:24:25.157Z,98650.91
2023-03-12T08:26:52.033Z,98650.31
2023-03-12T08:29:18.933Z,98647.62
2023-03-12T08:32:03.437Z,98655.88
2023-03-12T08:34:31.142Z,98659.56
2023-03-12T08:36:57.943Z,98655.88
2023-03-12T08:39:24.814Z,98649.66
2023-03-12T08:41:55.484Z,98654.38
2023-03-12T08:44:26.275Z,98652.72
2023-03-12T08:46:53.438Z,98654.59
2023-03-12T08:49:21.519Z,98651.25
2023-03-12T08:51:48.551Z,98657.44
2023-03-12T08:54:15.526Z,98660.31
2023-03-12T08:56:43.689Z,98662.16
2023-03-12T08:59:11.654Z,98662.16
2023-03-12T09:01:38.752Z,98666.66
2023-03-12T09:04:06.343Z,98668.28
2023-03-12T09:06:35.416Z,98664.78
2023-03-12T09:09:05.154Z,98662.25
2023-03-12T09:11:33.493Z,98657.66
2023-03-12T09:16:48.243Z,98649.12
2023-03-12T09:19:15.856Z,98650.72
2023-03-12T09:21:42.728Z,98651.50
2023-03-12T09:24:10.436Z,98652.91
2023-03-12T09:26:37.246Z,98657.19
2023-03-12T09:29:04.248Z,98650.94
2023-03-12T09:31:31.617Z,98639.09
2023-03-12T09:33:58.536Z,98631.78
2023-03-12T09:36:25.347Z,98633.59
2023-03-12T09:38:52.152Z,98634.19
2023-03-12T09:41:27.091Z,98635.78
2023-03-12T09:44:02.480Z,98634.91
2023-03-12T09:46:43.402Z,98631.31
2023-03-12T09:49:23.172Z,98631.28
2023-03-12T09:51:55.552Z,98631.44
2023-03-12T09:54:53.821Z,98634.28
2023-03-12T09:57:24.607Z,98628.81
2023-03-12T09:59:53.055Z,98628.75
2023-03-12T10:02:49.144Z,98624.13
2023-03-12T10:05:42.233Z,98616.78
2023-03-12T10:08:28.255Z,98620.00
2023-03-12T10:11:08.089Z,98609.38
2023-03-12T10:13:37.595Z,98608.00
2023-03-12T10:16:07.470Z,98613.34
2023-03-12T10:18:58.972Z,98609.72
2023-03-12T10:21:39.898Z,98604.25
2023-03-12T10:24:29.032Z,98609.31
2023-03-12T10:26:58.359Z,98616.28
2023-03-12T10:29:30.435Z,98612.66
2023-03-12T10:32:05.984Z,98613.63
2023-03-12T10:34:44.700Z,98618.12
2023-03-12T10:37:37.299Z,98618.03
2023-03-12T10:40:06.115Z,98609.59
2023-03-12T10:42:33.276Z,98610.31
2023-03-12T10:45:05.970Z,98613.16
2023-03-12T10:47:43.664Z,98612.47
2023-03-12T10:50:16.689Z,98607.41
2023-03-12T10:52:44.350Z,98616.47
2023-03-12T10:55:20.615Z,98610.34
2023-03-12T10:57:48.274Z,98615.09
2023-03-12T11:00:27.169Z,98612.28
2023-03-12T11:03:19.043Z,98612.63
2023-03-12T11:05:49.181Z,98609.44
2023-03-12T11:08:33.611Z,98604.97
2023-03-12T11:11:02.735Z,98593.34
2023-03-12T11:14:19.331Z,98593.13
2023-03-12T11:16:46.381Z,98588.69
2023-03-12T11:19:25.800Z,98575.75
2023-03-12T11:22:01.950Z,98571.28
2023-03-12T11:24:58.090Z,98565.16
2023-03-12T11:27:41.057Z,98565.28
2023-03-12T11:30:15.455Z,98572.69
2023-03-12T11:33:09.812Z,98572.84
2023-03-12T11:36:06.338Z,98559.41
2023-03-12T11:39:23.687Z,98555.75
2023-03-12T11:42:20.780Z,98547.53
2023-03-12T11:45:36.133Z,98548.47
2023-03-12T11:48:33.219Z,98556.44
2023-03-12T11:51:17.485Z,98544.63
2023-03-12T11:53:58.322Z,98550.41
2023-03-12T11:56:36.010Z,98540.75
2023-03-12T11:59:27.751Z,98539.78
2023-03-12T12:01:57.314Z,98539.63
2023-03-12T12:05:01.701Z,98525.38
2023-03-12T12:07:53.138Z,98528.19
2023-03-12T12:10:26.486Z,98519.09
2023-03-12T12:13:10.836Z,98526.50
2023-03-12T12:16:07.965Z,98526.34
2023-03-12T12:18:44.185Z,98519.72
2023-03-12T12:21:23.199Z,98522.50
2023-03-12T12:23:58.646Z,98521.19
2023-03-12T12:26:54.841Z,98515.78
2023-03-12T12:29:51.510Z,98505.53
2023-03-12T12:32:30.362Z,98515.88
2023-03-12T12:34:57.349Z,98511.34
2023-03-12T12:37:46.858Z,98513.00
2023-03-12T12:40:16.776Z,98503.81
2023-03-12T12:43:04.367Z,98504.22
2023-03-12T12:45:31.483Z,98504.31
2023-03-12T12:48:06.620Z,98506.59
2023-03-12T12:50:38.600Z,98510.53
2023-03-12T12:53:26.771Z,98505.19
2023-03-12T12:56:15.407Z,98496.88
2023-03-12T12:59:01.873Z,98500.25
2023-03-12T13:01:30.666Z,98488.41
2023-03-12T13:07:28.114Z,98488.88
2023-03-12T13:09:59.288Z,98494.16
2023-03-12T13:12:50.447Z,98502.09
2023-03-12T13:15:29.322Z,98498.94
2023-03-12T13:18:29.781Z,98487.91
2023-03-12T13:21:40.621Z,98491.25
2023-03-12T13:24:33.217Z,98486.03
2023-03-12T13:27:39.879Z,98490.16
2023-03-12T13:30:46.182Z,98476.66
2023-03-12T13:33:16.863Z,98485.41
2023-03-12T13:36:14.024Z,98488.19
2023-03-12T13:38:58.968Z,98486.66
2023-03-12T13:41:42.189Z,98486.44
2023-03-12T13:44:27.895Z,98478.66
2023-03-12T13:47:11.186Z,98483.06
2023-03-12T13:49:48.019Z,98485.81
2023-03-12T13:52:19.899Z,98486.09
2023-03-12T13:54:51.450Z,98482.66
2023-03-12T13:57:39.143Z,98500.06
2023-03-12T14:00:13.144Z,98499.28
2023-03-12T14:02:49.114Z,98497.38
2023-03-12T14:05:18.499Z,98501.22
2023-03-12T14:08:22.395Z,98504.53
2023-03-12T14:11:05.418Z,98506.50
2023-03-12T14:13:42.677Z,98504.84
2023-03-12T14:16:19.299Z,98502.38
2023-03-12T14:18:47.431Z,98502.88
2023-03-12T14:25:02.307Z,98506.44
2023-03-12T14:27:35.121Z,98511.03
2023-03-12T14:30:31.045Z,98506.69
2023-03-12T14:33:05.840Z,98511.59
2023-03-12T14:35:38.950Z,98507.50
2023-03-12T14:38:35.138Z,98506.44
2023-03-12T14:41:06.398Z,98506.16
2023-03-12T14:43:51.599Z,98507.22
2023-03-12T14:46:21.608Z,98508.53
2023-03-12T14:48:53.535Z,98506.91
2023-03-12T14:51:30.124Z,98504.44
2023-03-12T14:54:02.650Z,98494.09
2023-03-12T14:56:35.990Z,98496.00
2023-03-12T14:59:38.020Z,98504.41
2023-03-12T15:02:14.965Z,98507.94
2023-03-12T15:04:42.641Z,98508.78
2023-03-12T15:07:17.700Z,98503.34
2023-03-12T15:09:50.924Z,98503.34
2023-03-12T15:12:47.706Z,98504.69
2023-03-12T15:15:43.420Z,98500.63
2023-03-12T15:18:22.918Z,98499.81
2023-03-12T15:20:53.771Z,98504.94
2023-03-12T15:23:23.408Z,98497.03
2023-03-12T15:26:13.715Z,98496.47
2023-03-12T15:28:41.244Z,98497.88
2023-03-12T15:31:14.776Z,98489.97
2023-03-12T15:33:44.595Z,98494.00
2023-03-12T15:36:17.658Z,98498.06
2023-03-12T15:38:47.758Z,98495.59
2023-03-12T15:41:46.034Z,98493.69
2023-03-12T15:44:28.364Z,98496.94
2023-03-12T15:47:05.098Z,98496.38
2023-03-12T15:49:36.252Z,98499.34
2023-03-12T15:52:19.247Z,98494.47
2023-03-12T15:55:08.958Z,98490.94
2023-03-12T15:57:47.123Z,98487.16
2023-03-12T16:00:24.245Z,98484.69
2023-03-12T16:02:57.189Z,98484.13
2023-03-12T16:05:36.686Z,98488.75
2023-03-12T16:08:26.099Z,98484.37
2023-03-12T16:10:53.780Z,98486.81
2023-03-12T16:13:28.427Z,98485.91
2023-03-12T16:15:55.663Z,98481.00
2023-03-12T16:18:23.847Z,98492.63
2023-03-12T16:20:53.968Z,98488.53
2023-03-12T16:23:21.514Z,98489.88
2023-03-12T16:25:54.340Z,98499.87
2023-03-12T16:28:23.708Z,98494.38
2023-03-12T16:30:51.778Z,98500.56
2023-03-12T16:33:22.474Z,98490.72
2023-03-12T16:35:50.747Z,98501.84
2023-03-12T16:38:17.972Z,98500.97
2023-03-12T16:40:49.395Z,98509.28
2023-03-12T16:43:27.292Z,98519.81
2023-03-12T16:45:54.499Z,98520.34
2023-03-12T16:48:24.657Z,98529.22
2023-03-12T16:50:55.898Z,98534.34
2023-03-12T16:53:25.384Z,98535.94
2023-03-12T16:55:56.742Z,98529.37
2023-03-12T16:58:26.179Z,98533.38
2023-03-12T17:00:54.997Z,98535.25
2023-03-12T17:03:32.347Z,98535.25
2023-03-12T17:06:01.730Z,98530.34
2023-03-12T17:08:29.187Z,98533.81
2023-03-12T17:10:57.768Z,98536.78
2023-03-12T17:13:28.045Z,98535.38
2023-03-12T17:15:56.685Z,98540.00
2023-03-12T17:18:25.720Z,98546.25
2023-03-12T17:20:53.472Z,98538.59
2023-03-12T17:23:21.204Z,98539.34
2023-03-12T17:25:48.789Z,98541.22
2023-03-12T17:28:16.825Z,98542.19
2023-03-12T17:30:44.258Z,98545.16
2023-03-12T17:33:15.278Z,98540.47
2023-03-12T17:35:43.809Z,98543.44
2023-03-12T17:38:12.872Z,98542.06
2023-03-12T17:40:43.829Z,98540.91
2023-03-12T17:43:11.250Z,98545.75
2023-03-12T17:45:39.173Z,98540.59
2023-03-12T17:48:07.169Z,98542.12
2023-03-12T17:50:35.104Z,98544.19
2023-03-12T17:53:03.025Z,98552.75
2023-03-12T17:55:30.938Z,98559.25
2023-03-12T17:57:59.329Z,98563.25
2023-03-12T18:00:27.155Z,98558.81
2023-03-12T18:02:55.305Z,98568.00
2023-03-12T18:05:23.096Z,98578.19
2023-03-12T18:07:51.644Z,98571.13
2023-03-12T18:10:20.000Z,98577.53
2023-03-12T18:12:47.714Z,98569.53
2023-03-12T18:15:16.962Z,98572.97
2023-03-12T18:17:45.651Z,98576.66
2023-03-12T18:20:28.684Z,98579.62
2023-03-12T18:23:00.329Z,98583.87
2023-03-12T18:25:28.061Z,98576.69
2023-03-12T18:27:56.744Z,98577.19
2023-03-12T18:30:24.734Z,98577.69
2023-03-12T18:32:52.768Z,98577.34
2023-03-12T18:35:23.220Z,98579.72
2023-03-12T18:37:52.491Z,98581.03
2023-03-12T18:40:20.376Z,98580.31
2023-03-12T18:42:50.256Z,98592.69
2023-03-12T18:45:20.260Z,98600.94
2023-03-12T18:47:50.920Z,98597.75
2023-03-12T18:50:18.894Z,98594.25
2023-03-12T18:52:47.995Z,98594.72
2023-03-12T18:55:15.944Z,98594.38
2023-03-12T18:57:44.338Z,98597.09
2023-03-12T19:00:15.307Z,98592.16
2023-03-12T19:02:46.501Z,98592.03
2023-03-12T19:05:15.237Z,98587.91
2023-03-12T19:07:43.631Z,98599.94
2023-03-12T19:10:12.263Z,98594.97
2023-03-12T19:12:51.501Z,98590.37
2023-03-12T19:15:24.557Z,98599.13
2023-03-12T19:17:52.844Z,98602.84
2023-03-12T19:20:22.170Z,98605.78
2023-03-12T19:22:51.099Z,98615.78
2023-03-12T19:25:19.046Z,98614.72
2023-03-12T19:27:47.058Z,98613.31
2023-03-12T19:30:15.033Z,98621.69
2023-03-12T19:32:44.529Z,98633.56
2023-03-12T19:35:14.945Z,98633.81
2023-03-12T19:37:43.145Z,98639.69
2023-03-12T19:40:11.684Z,98634.28
2023-03-12T19:42:39.292Z,98636.87
2023-03-12T19:45:07.411Z,98643.59
2023-03-12T19:47:35.347Z,98636.53
2023-03-12T19:50:03.708Z,98629.59
2023-03-12T19:52:32.311Z,98623.34
2023-03-12T19:55:05.146Z,98620.06
2023-03-12T19:57:34.416Z,98626.28
2023-03-12T20:00:02.156Z,98629.22
2023-03-12T20:02:30.095Z,98624.53
2023-03-12T20:04:58.778Z,98628.31
2023-03-12T20:07:29.343Z,98622.31
2023-03-12T20:09:57.464Z,98621.13
2023-03-12T20:12:26.101Z,98625.50
2023-03-12T20:14:55.332Z,98628.63
2023-03-12T20:17:24.228Z,98626.03
2023-03-12T20:19:52.223Z,98636.00
2023-03-12T20:22:19.864Z,98627.56
2023-03-12T20:24:47.376Z,98631.56
2023-03-12T20:27:15.103Z,98635.69
2023-03-12T20:29:44.161Z,98630.84
2023-03-12T20:32:15.240Z,98626.03
2023-03-12T20:34:43.405Z,98630.28
2023-03-12T20:37:13.449Z,98630.75
2023-03-12T20:39:42.387Z,98630.13
2023-03-12T20:42:10.244Z,98639.66
2023-03-12T20:44:37.728Z,98645.31
2023-03-12T20:47:05.646Z,98639.53
2023-03-12T20:49:34.534Z,98643.87
2023-03-12T20:52:02.424Z,98633.53
2023-03-12T20:54:31.332Z,98643.97
2023-03-12T20:56:59.490Z,98637.16
2023-03-12T20:59:27.397Z,98629.66
2023-03-12T21:01:55.595Z,98636.13
2023-03-12T21:04:24.605Z,98629.53
2023-03-12T21:06:52.571Z,98626.84
2023-03-12T21:09:23.610Z,98629.53
2023-03-12T21:11:51.083Z,98641.16
2023-03-12T21:14:18.363Z,98643.28
2023-03-12T21:16:45.811Z,98640.94
2023-03-12T21:19:13.259Z,98644.34
2023-03-12T21:21:40.484Z,98640.44
2023-03-12T21:24:08.983Z,98635.63
2023-03-12T21:26:36.065Z,98634.00
2023-03-12T21:29:03.604Z,98631.97
2023-03-12T21:31:30.969Z,98637.37
2023-03-12T21:33:59.667Z,98639.03
2023-03-12T21:36:26.837Z,98633.47
2023-03-12T21:38:54.329Z,98637.00
2023-03-12T21:41:22.266Z,98627.72
2023-03-12T21:43:49.284Z,98632.06
2023-03-12T21:46:19.887Z,98622.78
2023-03-12T21:48:48.252Z,98615.97
2023-03-12T21:51:17.249Z,98621.37
2023-03-12T21:53:44.129Z,98620.19
2023-03-12T21:56:11.558Z,98626.19
2023-03-12T21:58:38.522Z,98623.13
2023-03-12T22:01:23.549Z,98610.69
2023-03-12T22:03:50.653Z,98616.91
2023-03-12T22:06:17.556Z,98604.47
2023-03-12T22:08:47.073Z,98609.28
2023-03-12T22:11:14.931Z,98617.38
2023-03-12T22:13:42.249Z,98621.94
2023-03-12T22:16:09.623Z,98624.62
2023-03-12T22:18:42.089Z,98615.72
2023-03-12T22:21:14.533Z,98611.97
2023-03-12T22:23:41.356Z,98618.62
2023-03-12T22:26:08.587Z,98605.13
2023-03-12T22:28:35.853Z,98621.94
2023-03-12T22:31:05.454Z,98613.00
2023-03-12T22:33:33.841Z,98619.84
2023-03-12T22:36:03.961Z,98630.66
2023-03-12T22:38:30.808Z,98630.66
2023-03-12T22:40:57.585Z,98638.13
2023-03-12T22:43:27.680Z,98641.28
2023-03-12T22:45:54.758Z,98639.66
2023-03-12T22:48:21.589Z,98641.06
2023-03-12T22:50:54.395Z,98636.72
2023-03-12T22:53:21.497Z,98642.13
2023-03-12T22:55:56.708Z,98637.75
2023-03-12T22:58:23.559Z,98628.03
2023-03-12T23:00:50.401Z,98633.06
2023-03-12T23:03:17.222Z,98641.63
2023-03-12T23:05:44.025Z,98628.81
2023-03-12T23:08:10.852Z,98641.72
2023-03-12T23:10:37.648Z,98639.25
2023-03-12T23:13:04.507Z,98640.31
2023-03-12T23:15:40.461Z,98645.72
2023-03-12T23:18:08.424Z,98648.62
2023-03-12T23:20:35.185Z,98647.59
2023-03-12T23:23:01.996Z,98657.56
2023-03-12T23:25:28.807Z,98659.19
2023-03-12T23:27:55.657Z,98654.03
2023-03-12T23:30:22.502Z,98652.59
2023-03-12T23:32:49.450Z,98656.09
2023-03-12T23:35:16.294Z,98652.81
2023-03-12T23:37:43.113Z,98657.63
2023-03-12T23:40:11.310Z,98661.59
2023-03-12T23:42:38.120Z,98651.03
2023-03-12T23:45:05.498Z,98667.47
2023-03-12T23:47:32.299Z,98669.56
2023-03-12T23:49:59.118Z,98672.72
2023-03-12T23:52:26.920Z,98670.03
2023-03-12T23:54:53.737Z,98675.66
2023-03-12T23:57:20.561Z,98671.31
2023-03-12T23:59:47.475Z,98670.72
